createdAt,value
2022-12-22T00:00:20.451Z,52.47
2022-12-22T00:01:20.432Z,52.47
2022-12-22T00:02:20.579Z,52.47
2022-12-22T00:03:20.614Z,52.47
2022-12-22T00:04:20.437Z,52.47
2022-12-22T00:05:20.315Z,52.47
2022-12-22T00:06:20.298Z,52.57
2022-12-22T00:07:20.266Z,52.57
2022-12-22T00:08:20.242Z,52.57
2022-12-22T00:09:20.252Z,52.47
2022-12-22T00:10:20.179Z,52.57
2022-12-22T00:11:20.170Z,52.57
2022-12-22T00:12:20.130Z,52.57
2022-12-22T00:13:20.110Z,52.57
2022-12-22T00:14:20.073Z,52.67
2022-12-22T00:15:20.085Z,52.67
2022-12-22T00:16:20.114Z,52.67
2022-12-22T00:17:20.007Z,52.67
2022-12-22T00:18:19.984Z,52.67
2022-12-22T00:19:19.955Z,52.67
2022-12-22T00:20:19.942Z,52.57
2022-12-22T00:21:19.947Z,52.67
2022-12-22T00:22:19.871Z,52.67
2022-12-22T00:23:19.840Z,52.67
2022-12-22T00:24:19.807Z,52.77
2022-12-22T00:25:19.788Z,52.77
2022-12-22T00:26:19.771Z,52.67
2022-12-22T00:27:19.772Z,52.67
2022-12-22T00:28:19.707Z,52.77
2022-12-22T00:29:19.683Z,52.77
2022-12-22T00:30:19.659Z,52.77
2022-12-22T00:31:19.692Z,52.87
2022-12-22T00:32:19.611Z,52.87
2022-12-22T00:33:19.610Z,52.87
2022-12-22T00:34:19.575Z,52.77
2022-12-22T00:35:19.560Z,52.87
2022-12-22T00:36:19.527Z,52.77
2022-12-22T00:37:19.515Z,52.87
2022-12-22T00:38:19.492Z,52.87
2022-12-22T00:39:19.494Z,52.97
2022-12-22T00:40:19.454Z,52.87
2022-12-22T00:41:19.438Z,52.87
2022-12-22T00:42:19.411Z,52.87
2022-12-22T00:43:19.382Z,52.97
2022-12-22T00:44:19.359Z,53.07
2022-12-22T00:45:19.385Z,52.97
2022-12-22T00:46:19.361Z,52.97
2022-12-22T00:47:19.291Z,52.97
2022-12-22T00:48:19.273Z,52.87
2022-12-22T00:49:19.256Z,52.97
2022-12-22T00:50:19.236Z,52.87
2022-12-22T00:51:19.379Z,53.00
2022-12-22T00:52:19.229Z,53.00
2022-12-22T00:53:19.190Z,53.17
2022-12-22T00:54:19.157Z,53.07
2022-12-22T00:55:19.136Z,52.97
2022-12-22T00:56:19.115Z,53.07
2022-12-22T00:57:19.229Z,53.07
2022-12-22T00:58:19.069Z,52.97
2022-12-22T00:59:19.055Z,53.00
2022-12-22T01:00:19.025Z,53.00
2022-12-22T01:01:19.114Z,53.00
2022-12-22T01:02:19.179Z,53.00
2022-12-22T01:03:19.098Z,53.09
2022-12-22T01:04:18.959Z,53.00
2022-12-22T01:05:18.935Z,53.00
2022-12-22T01:06:18.897Z,53.09
2022-12-22T01:07:18.883Z,53.00
2022-12-22T01:08:18.865Z,53.09
2022-12-22T01:09:18.880Z,53.00
2022-12-22T01:10:18.826Z,53.09
2022-12-22T01:11:18.810Z,53.09
2022-12-22T01:12:18.789Z,53.00
2022-12-22T01:13:18.783Z,53.09
2022-12-22T01:14:18.766Z,53.00
2022-12-22T01:15:18.783Z,53.00
2022-12-22T01:16:18.852Z,53.09
2022-12-22T01:17:18.709Z,53.00
2022-12-22T01:18:18.686Z,53.00
2022-12-22T01:19:18.683Z,53.09
2022-12-22T01:20:18.643Z,53.00
2022-12-22T01:21:18.688Z,53.09
2022-12-22T01:22:18.602Z,53.09
2022-12-22T01:23:18.591Z,53.09
2022-12-22T01:24:18.562Z,53.09
2022-12-22T01:25:18.541Z,53.09
2022-12-22T01:26:18.522Z,53.20
2022-12-22T01:27:18.545Z,53.09
2022-12-22T01:28:18.506Z,53.09
2022-12-22T01:29:18.491Z,53.20
2022-12-22T01:30:18.494Z,53.09
2022-12-22T01:31:18.521Z,53.20
2022-12-22T01:32:18.434Z,53.09
2022-12-22T01:33:18.447Z,53.09
2022-12-22T01:34:18.402Z,53.20
2022-12-22T01:35:18.389Z,53.09
2022-12-22T01:36:18.372Z,53.09
2022-12-22T01:37:18.367Z,53.09
2022-12-22T01:38:18.347Z,53.20
2022-12-22T01:39:18.370Z,53.20
2022-12-22T01:40:18.302Z,53.40
2022-12-22T01:41:18.286Z,53.30
2022-12-22T01:42:18.271Z,53.40
2022-12-22T01:43:18.259Z,53.30
2022-12-22T01:44:18.242Z,53.30
2022-12-22T01:45:18.242Z,53.30
2022-12-22T01:46:18.283Z,53.20
2022-12-22T01:47:18.200Z,53.20
2022-12-22T01:48:18.187Z,53.20
2022-12-22T01:49:18.166Z,53.30
2022-12-22T01:50:18.147Z,53.30
2022-12-22T01:51:18.300Z,53.20
2022-12-22T01:52:18.148Z,53.30
2022-12-22T01:53:19.930Z,53.30
2022-12-22T01:54:18.088Z,53.40
2022-12-22T01:55:18.072Z,53.30
2022-12-22T01:56:18.059Z,53.30
2022-12-22T01:57:18.199Z,53.40
2022-12-22T01:58:18.031Z,53.40
2022-12-22T01:59:18.107Z,53.30
2022-12-22T02:00:18.002Z,53.40
2022-12-22T02:01:18.071Z,53.50
2022-12-22T02:02:18.149Z,53.30
2022-12-22T02:03:18.058Z,53.40
2022-12-22T02:04:18.007Z,53.40
2022-12-22T02:05:17.948Z,53.40
2022-12-22T02:06:17.940Z,53.40
2022-12-22T02:07:17.925Z,53.40
2022-12-22T02:08:17.912Z,53.40
2022-12-22T02:09:17.944Z,53.40
2022-12-22T02:10:17.897Z,53.52
2022-12-22T02:11:17.897Z,53.40
2022-12-22T02:12:17.868Z,53.50
2022-12-22T02:13:17.847Z,53.42
2022-12-22T02:14:17.829Z,53.52
2022-12-22T02:15:17.866Z,53.42
2022-12-22T02:16:17.863Z,53.42
2022-12-22T02:17:17.807Z,53.42
2022-12-22T02:18:17.797Z,53.42
2022-12-22T02:19:17.780Z,53.52
2022-12-22T02:20:17.768Z,53.42
2022-12-22T02:21:17.788Z,53.42
2022-12-22T02:22:17.763Z,53.52
2022-12-22T02:23:17.751Z,53.42
2022-12-22T02:24:17.728Z,53.52
2022-12-22T02:25:17.725Z,53.63
2022-12-22T02:26:17.713Z,53.52
2022-12-22T02:27:17.748Z,53.52
2022-12-22T02:28:17.696Z,53.42
2022-12-22T02:29:17.685Z,53.52
2022-12-22T02:30:17.687Z,53.42
2022-12-22T02:31:17.743Z,53.52
2022-12-22T02:32:17.656Z,53.52
2022-12-22T02:33:17.688Z,53.52
2022-12-22T02:34:17.637Z,53.52
2022-12-22T02:35:17.647Z,53.52
2022-12-22T02:36:17.616Z,53.42
2022-12-22T02:37:17.601Z,53.63
2022-12-22T02:38:17.607Z,53.52
2022-12-22T02:39:17.620Z,53.63
2022-12-22T02:40:17.572Z,53.63
2022-12-22T02:41:17.561Z,53.52
2022-12-22T02:42:17.555Z,53.63
2022-12-22T02:43:17.544Z,53.72
2022-12-22T02:44:17.532Z,53.63
2022-12-22T02:45:17.560Z,53.63
2022-12-22T02:46:17.565Z,53.72
2022-12-22T02:47:17.490Z,53.63
2022-12-22T02:48:17.476Z,53.72
2022-12-22T02:49:17.465Z,53.72
2022-12-22T02:50:17.471Z,53.63
2022-12-22T02:51:17.473Z,53.72
2022-12-22T02:52:17.428Z,53.72
2022-12-22T02:53:17.422Z,53.63
2022-12-22T02:54:17.415Z,53.63
2022-12-22T02:55:17.416Z,53.52
2022-12-22T02:56:17.397Z,53.63
2022-12-22T02:57:17.413Z,53.63
2022-12-22T02:58:17.377Z,53.63
2022-12-22T02:59:17.361Z,53.63
2022-12-22T03:00:17.354Z,53.72
2022-12-22T03:01:17.390Z,53.72
2022-12-22T03:02:17.571Z,53.72
2022-12-22T03:03:17.584Z,53.63
2022-12-22T03:04:17.318Z,53.72
2022-12-22T03:05:17.306Z,53.72
2022-12-22T03:06:17.294Z,53.72
2022-12-22T03:07:17.274Z,53.72
2022-12-22T03:08:17.258Z,53.72
2022-12-22T03:09:17.278Z,53.72
2022-12-22T03:10:17.239Z,53.72
2022-12-22T03:11:17.223Z,53.63
2022-12-22T03:12:17.213Z,53.72
2022-12-22T03:13:17.208Z,53.83
2022-12-22T03:14:17.189Z,53.83
2022-12-22T03:15:17.225Z,53.72
2022-12-22T03:16:17.181Z,53.83
2022-12-22T03:17:17.150Z,53.83
2022-12-22T03:18:17.134Z,53.83
2022-12-22T03:19:17.124Z,53.83
2022-12-22T03:20:17.111Z,53.72
2022-12-22T03:21:17.133Z,53.83
2022-12-22T03:22:17.073Z,53.72
2022-12-22T03:23:17.062Z,53.72
2022-12-22T03:24:17.037Z,53.72
2022-12-22T03:25:17.081Z,53.72
2022-12-22T03:26:17.025Z,53.72
2022-12-22T03:27:17.018Z,53.83
2022-12-22T03:28:16.991Z,53.92
2022-12-22T03:29:16.987Z,53.72
2022-12-22T03:30:16.958Z,53.83
2022-12-22T03:31:17.019Z,53.83
2022-12-22T03:32:16.930Z,53.83
2022-12-22T03:33:16.942Z,53.83
2022-12-22T03:34:16.906Z,53.92
2022-12-22T03:35:16.890Z,53.83
2022-12-22T03:36:16.871Z,53.92
2022-12-22T03:37:16.858Z,53.92
2022-12-22T03:38:16.847Z,53.83
2022-12-22T03:39:16.875Z,53.83
2022-12-22T03:40:16.822Z,53.83
2022-12-22T03:41:16.815Z,53.83
2022-12-22T03:42:16.798Z,53.83
2022-12-22T03:43:16.817Z,53.83
2022-12-22T03:44:16.780Z,53.83
2022-12-22T03:45:16.812Z,53.83
2022-12-22T03:46:16.842Z,53.92
2022-12-22T03:47:16.873Z,53.83
2022-12-22T03:48:16.755Z,53.92
2022-12-22T03:49:16.743Z,53.92
2022-12-22T03:50:16.718Z,53.83
2022-12-22T03:51:16.751Z,53.83
2022-12-22T03:52:16.707Z,53.92
2022-12-22T03:53:16.702Z,53.83
2022-12-22T03:54:16.697Z,53.83
2022-12-22T03:55:16.694Z,53.92
2022-12-22T03:56:16.675Z,53.92
2022-12-22T03:57:16.720Z,54.03
2022-12-22T03:58:16.670Z,54.03
2022-12-22T03:59:16.652Z,53.92
2022-12-22T04:00:16.637Z,53.92
2022-12-22T04:01:16.677Z,53.92
2022-12-22T04:02:16.800Z,53.92
2022-12-22T04:03:16.753Z,54.03
2022-12-22T04:04:16.623Z,54.03
2022-12-22T04:05:16.611Z,54.03
2022-12-22T04:06:16.603Z,54.03
2022-12-22T04:07:16.603Z,53.92
2022-12-22T04:08:16.600Z,53.92
2022-12-22T04:09:16.615Z,53.92
2022-12-22T04:10:16.577Z,54.03
2022-12-22T04:11:16.567Z,54.03
2022-12-22T04:12:16.577Z,53.92
2022-12-22T04:13:16.569Z,54.03
2022-12-22T04:14:16.544Z,53.92
2022-12-22T04:15:16.560Z,53.92
2022-12-22T04:16:16.609Z,53.92
2022-12-22T04:17:16.512Z,53.95
2022-12-22T04:18:16.497Z,54.03
2022-12-22T04:19:16.486Z,54.05
2022-12-22T04:20:16.481Z,54.03
2022-12-22T04:21:16.508Z,53.95
2022-12-22T04:22:16.484Z,53.92
2022-12-22T04:23:16.444Z,54.05
2022-12-22T04:24:16.431Z,54.05
2022-12-22T04:25:16.424Z,54.05
2022-12-22T04:26:16.419Z,54.05
2022-12-22T04:27:16.428Z,54.05
2022-12-22T04:28:16.483Z,53.92
2022-12-22T04:29:16.380Z,54.05
2022-12-22T04:30:16.371Z,54.05
2022-12-22T04:31:16.457Z,53.95
2022-12-22T04:32:16.465Z,54.15
2022-12-22T04:33:16.380Z,54.15
2022-12-22T04:34:16.340Z,54.15
2022-12-22T04:35:16.328Z,54.15
2022-12-22T04:36:16.324Z,54.15
2022-12-22T04:37:17.651Z,54.15
2022-12-22T04:38:16.297Z,54.15
2022-12-22T04:39:16.320Z,54.15
2022-12-22T04:40:16.280Z,54.15
2022-12-22T04:41:16.272Z,54.15
2022-12-22T04:42:16.260Z,54.25
2022-12-22T04:43:16.249Z,54.15
2022-12-22T04:44:16.244Z,54.05
2022-12-22T04:45:16.264Z,54.15
2022-12-22T04:46:16.261Z,54.05
2022-12-22T04:47:16.210Z,54.15
2022-12-22T04:48:16.198Z,54.05
2022-12-22T04:49:16.187Z,54.05
2022-12-22T04:50:16.163Z,54.05
2022-12-22T04:51:16.181Z,54.25
2022-12-22T04:52:16.138Z,54.15
2022-12-22T04:53:16.125Z,54.46
2022-12-22T04:54:16.114Z,54.55
2022-12-22T04:55:16.104Z,54.66
2022-12-22T04:56:16.095Z,54.55
2022-12-22T04:57:16.121Z,54.55
2022-12-22T04:58:16.088Z,54.66
2022-12-22T04:59:16.056Z,54.66
2022-12-22T05:00:16.055Z,54.55
2022-12-22T05:01:16.171Z,54.66
2022-12-22T05:02:16.127Z,54.66
2022-12-22T05:03:16.133Z,54.66
2022-12-22T05:04:20.313Z,54.55
2022-12-22T05:05:16.009Z,54.55
2022-12-22T05:06:15.971Z,54.66
2022-12-22T05:07:15.959Z,54.75
2022-12-22T05:08:15.947Z,54.86
2022-12-22T05:09:15.955Z,54.75
2022-12-22T05:10:15.912Z,54.75
2022-12-22T05:11:15.903Z,54.66
2022-12-22T05:12:15.891Z,54.66
2022-12-22T05:13:15.885Z,54.66
2022-12-22T05:14:15.890Z,54.55
2022-12-22T05:15:15.916Z,54.55
2022-12-22T05:16:15.929Z,54.55
2022-12-22T05:17:15.849Z,54.66
2022-12-22T05:18:15.860Z,54.55
2022-12-22T05:19:15.857Z,54.55
2022-12-22T05:20:15.820Z,54.55
2022-12-22T05:21:15.962Z,54.55
2022-12-22T05:22:15.795Z,54.55
2022-12-22T05:23:15.802Z,54.46
2022-12-22T05:24:15.807Z,54.46
2022-12-22T05:25:15.791Z,54.35
2022-12-22T05:26:15.760Z,54.35
2022-12-22T05:27:15.794Z,54.35
2022-12-22T05:28:15.737Z,54.25
2022-12-22T05:29:15.749Z,54.25
2022-12-22T05:30:15.723Z,54.25
2022-12-22T05:31:15.803Z,54.25
2022-12-22T05:32:15.705Z,54.25
2022-12-22T05:33:15.733Z,54.25
2022-12-22T05:34:15.707Z,54.25
2022-12-22T05:35:15.679Z,54.25
2022-12-22T05:36:15.666Z,54.25
2022-12-22T05:37:15.654Z,54.15
2022-12-22T05:38:15.671Z,54.15
2022-12-22T05:39:15.665Z,54.15
2022-12-22T05:40:15.608Z,54.15
2022-12-22T05:41:15.622Z,54.15
2022-12-22T05:42:15.593Z,54.05
2022-12-22T05:43:15.567Z,54.05
2022-12-22T05:44:15.562Z,54.05
2022-12-22T05:45:15.611Z,54.15
2022-12-22T05:46:15.669Z,54.15
2022-12-22T05:47:15.520Z,54.25
2022-12-22T05:48:15.500Z,54.46
2022-12-22T05:49:15.488Z,54.75
2022-12-22T05:50:15.472Z,54.86
2022-12-22T05:51:15.495Z,54.86
2022-12-22T05:52:15.437Z,54.86
2022-12-22T05:53:15.428Z,54.75
2022-12-22T05:54:15.416Z,54.86
2022-12-22T05:55:15.394Z,54.86
2022-12-22T05:56:15.390Z,54.86
2022-12-22T05:57:15.422Z,54.86
2022-12-22T05:58:15.369Z,54.96
2022-12-22T05:59:15.359Z,54.86
2022-12-22T06:00:15.348Z,54.96
2022-12-22T06:01:15.328Z,54.86
2022-12-22T06:02:15.514Z,54.96
2022-12-22T06:03:15.400Z,54.96
2022-12-22T06:04:15.592Z,55.06
2022-12-22T06:05:15.292Z,54.96
2022-12-22T06:06:15.267Z,55.06
2022-12-22T06:07:15.263Z,55.06
2022-12-22T06:08:15.236Z,55.06
2022-12-22T06:09:15.258Z,55.06
2022-12-22T06:10:15.216Z,55.16
2022-12-22T06:11:15.197Z,55.16
2022-12-22T06:12:15.188Z,55.06
2022-12-22T06:13:15.169Z,55.16
2022-12-22T06:14:15.153Z,55.16
2022-12-22T06:15:15.153Z,55.16
2022-12-22T06:16:15.140Z,55.16
2022-12-22T06:17:15.101Z,55.16
2022-12-22T06:18:15.092Z,55.26
2022-12-22T06:19:15.064Z,55.26
2022-12-22T06:20:15.096Z,55.26
2022-12-22T06:21:15.069Z,55.26
2022-12-22T06:22:15.034Z,55.26
2022-12-22T06:23:15.030Z,55.26
2022-12-22T06:24:15.009Z,55.26
2022-12-22T06:25:18.432Z,55.26
2022-12-22T06:26:14.969Z,55.26
2022-12-22T06:27:14.989Z,55.26
2022-12-22T06:28:14.956Z,55.26
2022-12-22T06:29:14.956Z,55.26
2022-12-22T06:30:14.939Z,55.36
2022-12-22T06:31:14.961Z,55.16
2022-12-22T06:32:14.919Z,55.06
2022-12-22T06:33:14.927Z,55.06
2022-12-22T06:34:14.871Z,55.06
2022-12-22T06:35:14.861Z,55.06
2022-12-22T06:36:14.842Z,55.06
2022-12-22T06:37:14.839Z,55.06
2022-12-22T06:38:14.826Z,55.06
2022-12-22T06:39:14.851Z,54.96
2022-12-22T06:40:14.806Z,54.96
2022-12-22T06:41:14.781Z,54.86
2022-12-22T06:42:14.770Z,54.86
2022-12-22T06:43:14.763Z,54.86
2022-12-22T06:44:14.755Z,54.75
2022-12-22T06:45:14.775Z,54.86
2022-12-22T06:46:14.741Z,54.75
2022-12-22T06:47:14.717Z,54.75
2022-12-22T06:48:14.719Z,54.75
2022-12-22T06:49:14.684Z,54.66
2022-12-22T06:50:14.667Z,54.66
2022-12-22T06:51:14.688Z,54.66
2022-12-22T06:52:14.647Z,54.66
2022-12-22T06:53:14.640Z,54.66
2022-12-22T06:54:14.615Z,54.55
2022-12-22T06:55:14.598Z,54.55
2022-12-22T06:56:14.587Z,54.55
2022-12-22T06:57:14.620Z,54.55
2022-12-22T06:58:14.566Z,54.46
2022-12-22T06:59:14.554Z,54.46
2022-12-22T07:00:14.561Z,54.46
2022-12-22T07:01:14.664Z,54.46
2022-12-22T07:02:14.741Z,54.46
2022-12-22T07:03:14.866Z,54.35
2022-12-22T07:04:14.513Z,54.35
2022-12-22T07:05:14.491Z,54.35
2022-12-22T07:06:14.487Z,54.35
2022-12-22T07:07:14.471Z,54.25
2022-12-22T07:08:14.452Z,54.25
2022-12-22T07:09:14.594Z,54.25
2022-12-22T07:10:14.433Z,54.25
2022-12-22T07:11:14.424Z,54.25
2022-12-22T07:12:14.415Z,54.25
2022-12-22T07:13:14.393Z,54.15
2022-12-22T07:14:14.383Z,54.15
2022-12-22T07:15:14.399Z,54.15
2022-12-22T07:16:14.453Z,54.15
2022-12-22T07:17:14.344Z,54.15
2022-12-22T07:18:14.330Z,54.05
2022-12-22T07:19:14.325Z,54.05
2022-12-22T07:20:14.308Z,54.05
2022-12-22T07:21:14.350Z,54.05
2022-12-22T07:22:14.282Z,54.05
2022-12-22T07:23:14.276Z,54.05
2022-12-22T07:24:14.256Z,54.05
2022-12-22T07:25:14.243Z,53.95
2022-12-22T07:26:14.225Z,53.95
2022-12-22T07:27:14.379Z,53.95
2022-12-22T07:28:18.480Z,53.95
2022-12-22T07:29:14.208Z,53.95
2022-12-22T07:30:14.193Z,53.95
2022-12-22T07:31:14.284Z,53.95
2022-12-22T07:32:14.173Z,53.85
2022-12-22T07:33:14.204Z,53.95
2022-12-22T07:34:14.168Z,53.95
2022-12-22T07:35:14.160Z,53.85
2022-12-22T07:36:14.128Z,53.95
2022-12-22T07:37:14.104Z,53.85
2022-12-22T07:38:14.123Z,53.85
2022-12-22T07:39:14.149Z,53.85
2022-12-22T07:40:14.093Z,53.95
2022-12-22T07:41:14.093Z,53.85
2022-12-22T07:42:14.041Z,53.85
2022-12-22T07:43:14.044Z,53.85
2022-12-22T07:44:14.081Z,53.85
2022-12-22T07:45:14.058Z,53.75
2022-12-22T07:46:14.146Z,53.88
2022-12-22T07:47:14.126Z,53.75
2022-12-22T07:48:14.008Z,53.75
2022-12-22T07:49:14.055Z,53.78
2022-12-22T07:50:13.984Z,53.75
2022-12-22T07:51:14.024Z,53.78
2022-12-22T07:52:13.948Z,53.75
2022-12-22T07:53:13.949Z,53.65
2022-12-22T07:54:13.919Z,53.67
2022-12-22T07:55:13.917Z,53.67
2022-12-22T07:56:13.902Z,53.67
2022-12-22T07:57:13.917Z,53.67
2022-12-22T07:58:13.878Z,53.67
2022-12-22T07:59:14.871Z,53.67
2022-12-22T08:00:13.854Z,53.67
2022-12-22T08:01:13.847Z,53.67
2022-12-22T08:02:13.960Z,53.67
2022-12-22T08:03:13.998Z,53.58
2022-12-22T08:04:13.924Z,53.67
2022-12-22T08:05:13.915Z,53.67
2022-12-22T08:06:13.803Z,53.67
2022-12-22T08:07:13.816Z,53.58
2022-12-22T08:08:13.790Z,53.58
2022-12-22T08:09:13.811Z,53.58
2022-12-22T08:10:13.775Z,53.58
2022-12-22T08:11:13.771Z,53.58
2022-12-22T08:12:13.777Z,53.58
2022-12-22T08:13:13.825Z,53.58
2022-12-22T08:14:13.798Z,53.47
2022-12-22T08:15:13.931Z,53.47
2022-12-22T08:16:13.818Z,53.47
2022-12-22T08:17:13.763Z,53.47
2022-12-22T08:18:13.751Z,53.47
2022-12-22T08:19:13.746Z,53.47
2022-12-22T08:20:13.758Z,53.38
2022-12-22T08:21:13.770Z,53.38
2022-12-22T08:22:13.738Z,53.38
2022-12-22T08:23:13.729Z,53.38
2022-12-22T08:24:13.730Z,53.38
2022-12-22T08:25:13.722Z,53.38
2022-12-22T08:26:13.711Z,53.25
2022-12-22T08:27:13.877Z,53.25
2022-12-22T08:28:13.708Z,53.25
2022-12-22T08:29:13.712Z,53.25
2022-12-22T08:30:13.704Z,53.25
2022-12-22T08:31:13.748Z,53.25
2022-12-22T08:32:13.680Z,53.14
2022-12-22T08:33:13.839Z,53.14
2022-12-22T08:34:13.659Z,53.14
2022-12-22T08:35:13.648Z,53.14
2022-12-22T08:36:13.645Z,53.14
2022-12-22T08:37:13.627Z,53.14
2022-12-22T08:38:13.645Z,53.05
2022-12-22T08:39:13.636Z,53.05
2022-12-22T08:40:13.591Z,53.05
2022-12-22T08:41:13.580Z,53.05
2022-12-22T08:42:13.581Z,53.05
2022-12-22T08:43:13.564Z,53.05
2022-12-22T08:44:13.548Z,53.05
2022-12-22T08:45:13.571Z,53.05
2022-12-22T08:46:13.527Z,52.94
2022-12-22T08:47:17.175Z,52.94
2022-12-22T08:48:13.514Z,52.94
2022-12-22T08:49:13.494Z,52.94
2022-12-22T08:50:13.503Z,52.94
2022-12-22T08:51:13.521Z,52.94
2022-12-22T08:52:18.456Z,52.94
2022-12-22T08:53:37.144Z,52.94
2022-12-22T08:54:13.466Z,52.94
2022-12-22T08:55:13.436Z,52.94
2022-12-22T08:56:13.427Z,52.94
2022-12-22T08:57:13.470Z,52.84
2022-12-22T08:58:13.420Z,52.84
2022-12-22T08:59:13.397Z,52.84
2022-12-22T09:00:13.581Z,52.84
2022-12-22T09:01:13.414Z,52.84
2022-12-22T09:02:13.522Z,52.84
2022-12-22T09:03:13.533Z,52.84
2022-12-22T09:04:13.366Z,52.84
2022-12-22T09:05:13.364Z,52.84
2022-12-22T09:06:13.345Z,52.84
2022-12-22T09:07:13.332Z,52.84
2022-12-22T09:08:13.325Z,52.74
2022-12-22T09:09:13.346Z,52.74
2022-12-22T09:10:13.299Z,52.74
2022-12-22T09:11:13.292Z,52.74
2022-12-22T09:12:13.302Z,52.74
2022-12-22T09:13:13.293Z,52.74
2022-12-22T09:14:13.277Z,52.74
2022-12-22T09:15:13.305Z,52.74
2022-12-22T09:16:13.337Z,52.74
2022-12-22T09:17:13.236Z,52.74
2022-12-22T09:18:13.230Z,52.74
2022-12-22T09:19:13.208Z,52.74
2022-12-22T09:20:13.207Z,52.74
2022-12-22T09:21:13.238Z,52.74
2022-12-22T09:22:13.187Z,52.74
2022-12-22T09:23:13.174Z,52.74
2022-12-22T09:24:13.147Z,52.74
2022-12-22T09:25:13.134Z,52.74
2022-12-22T09:26:13.120Z,52.64
2022-12-22T09:27:13.146Z,52.74
2022-12-22T09:28:13.083Z,52.64
2022-12-22T09:29:13.065Z,52.64
2022-12-22T09:30:13.039Z,52.64
2022-12-22T09:31:13.140Z,52.64
2022-12-22T09:32:13.135Z,52.64
2022-12-22T09:33:13.141Z,52.64
2022-12-22T09:34:17.465Z,52.64
2022-12-22T09:35:12.976Z,52.64
2022-12-22T09:36:12.953Z,52.64
2022-12-22T09:37:12.930Z,52.64
2022-12-22T09:38:12.923Z,52.64
2022-12-22T09:39:12.972Z,52.64
2022-12-22T09:40:12.905Z,52.64
2022-12-22T09:41:12.878Z,52.64
2022-12-22T09:42:12.867Z,52.64
2022-12-22T09:43:12.851Z,52.64
2022-12-22T09:44:12.843Z,52.64
2022-12-22T09:45:17.066Z,52.64
2022-12-22T09:46:12.872Z,52.64
2022-12-22T09:47:12.806Z,52.64
2022-12-22T09:48:12.801Z,52.64
2022-12-22T09:49:12.778Z,52.64
2022-12-22T09:50:12.769Z,52.64
2022-12-22T09:51:12.801Z,52.64
2022-12-22T09:52:12.750Z,52.64
2022-12-22T09:53:12.738Z,52.64
2022-12-22T09:54:12.733Z,52.54
2022-12-22T09:55:12.726Z,52.54
2022-12-22T09:56:12.697Z,52.54
2022-12-22T09:57:12.727Z,52.54
2022-12-22T09:58:12.676Z,52.54
2022-12-22T09:59:12.705Z,52.54
2022-12-22T10:00:12.651Z,52.54
2022-12-22T10:01:12.684Z,52.54
2022-12-22T10:02:12.688Z,52.54
2022-12-22T10:03:12.735Z,52.54
2022-12-22T10:04:12.611Z,52.54
2022-12-22T10:05:12.606Z,52.54
2022-12-22T10:06:12.595Z,52.54
2022-12-22T10:07:12.580Z,52.54
2022-12-22T10:08:12.592Z,52.54
2022-12-22T10:09:45.768Z,52.54
2022-12-22T10:10:12.551Z,52.54
2022-12-22T10:11:12.537Z,52.54
2022-12-22T10:12:12.540Z,52.54
2022-12-22T10:13:12.507Z,52.54
2022-12-22T10:14:12.495Z,52.54
2022-12-22T10:15:18.280Z,52.54
2022-12-22T10:16:12.535Z,52.54
2022-12-22T10:17:12.541Z,52.57
2022-12-22T10:18:12.470Z,52.54
2022-12-22T10:19:12.442Z,52.54
2022-12-22T10:20:12.425Z,52.54
2022-12-22T10:21:12.466Z,52.54
2022-12-22T10:22:12.402Z,52.54
2022-12-22T10:23:12.391Z,52.54
2022-12-22T10:24:12.398Z,52.44
2022-12-22T10:25:12.364Z,52.44
2022-12-22T10:26:29.595Z,52.44
2022-12-22T10:27:12.371Z,52.44
2022-12-22T10:28:12.327Z,52.44
2022-12-22T10:29:12.312Z,52.47
2022-12-22T10:30:12.295Z,52.44
2022-12-22T10:31:12.290Z,52.47
2022-12-22T10:32:12.416Z,52.47
2022-12-22T10:33:12.288Z,52.47
2022-12-22T10:34:12.247Z,52.47
2022-12-22T10:35:12.230Z,52.44
2022-12-22T10:36:12.218Z,52.47
2022-12-22T10:37:12.212Z,52.47
2022-12-22T10:38:21.076Z,52.47
2022-12-22T10:39:12.228Z,52.47
2022-12-22T10:40:12.171Z,52.47
2022-12-22T10:41:12.315Z,52.47
2022-12-22T10:42:12.139Z,52.47
2022-12-22T10:43:12.134Z,52.47
2022-12-22T10:44:12.119Z,52.47
2022-12-22T10:45:12.155Z,52.47
2022-12-22T10:46:12.172Z,52.47
2022-12-22T10:47:17.169Z,52.47
2022-12-22T10:48:12.085Z,52.47
2022-12-22T10:49:12.050Z,52.47
2022-12-22T10:50:12.051Z,52.47
2022-12-22T10:51:12.066Z,52.47
2022-12-22T10:52:12.011Z,52.47
2022-12-22T10:53:11.993Z,52.47
2022-12-22T10:54:11.980Z,52.47
2022-12-22T10:55:11.952Z,52.47
2022-12-22T10:56:11.948Z,52.47
2022-12-22T10:57:11.982Z,52.47
2022-12-22T10:58:11.929Z,52.37
2022-12-22T10:59:11.912Z,52.37
2022-12-22T11:00:11.905Z,52.47
2022-12-22T11:01:11.986Z,52.47
2022-12-22T11:02:12.054Z,52.37
2022-12-22T11:03:12.191Z,52.37
2022-12-22T11:04:11.932Z,52.47
2022-12-22T11:05:11.846Z,52.47
2022-12-22T11:06:11.830Z,52.37
2022-12-22T11:07:11.825Z,52.37
2022-12-22T11:08:11.813Z,52.37
2022-12-22T11:09:32.373Z,52.37
2022-12-22T11:10:11.800Z,52.37
2022-12-22T11:11:11.777Z,52.37
2022-12-22T11:12:11.784Z,52.37
2022-12-22T11:13:11.757Z,52.37
2022-12-22T11:14:11.751Z,52.37
2022-12-22T11:15:11.770Z,52.37
2022-12-22T11:16:11.738Z,52.37
2022-12-22T11:17:11.789Z,52.37
2022-12-22T11:18:11.703Z,52.37
2022-12-22T11:19:11.686Z,52.37
2022-12-22T11:20:11.687Z,52.37
2022-12-22T11:21:11.714Z,52.37
2022-12-22T11:22:11.665Z,52.37
2022-12-22T11:23:11.649Z,52.37
2022-12-22T11:24:11.648Z,52.37
2022-12-22T11:25:11.627Z,52.37
2022-12-22T11:26:11.610Z,52.37
2022-12-22T11:27:11.636Z,52.37
2022-12-22T11:28:11.582Z,52.37
2022-12-22T11:29:11.565Z,52.37
2022-12-22T11:30:11.567Z,52.37
2022-12-22T11:31:11.651Z,52.37
2022-12-22T11:32:11.542Z,52.37
2022-12-22T11:33:11.556Z,52.37
2022-12-22T11:34:15.871Z,52.37
2022-12-22T11:35:11.515Z,52.37
2022-12-22T11:36:11.488Z,52.37
2022-12-22T11:37:11.488Z,52.37
2022-12-22T11:38:11.468Z,52.37
2022-12-22T11:39:11.494Z,52.26
2022-12-22T11:40:11.448Z,52.26
2022-12-22T11:41:11.430Z,52.26
2022-12-22T11:42:11.416Z,52.26
2022-12-22T11:43:11.403Z,52.14
2022-12-22T11:44:11.397Z,51.93
2022-12-22T11:45:11.406Z,52.04
2022-12-22T11:46:11.406Z,52.04
2022-12-22T11:47:11.350Z,52.17
2022-12-22T11:48:11.338Z,52.17
2022-12-22T11:49:11.399Z,52.17
2022-12-22T11:51:05.891Z,52.17
2022-12-22T11:51:15.023Z,52.17
2022-12-22T11:52:11.303Z,52.26
2022-12-22T11:53:11.291Z,52.26
2022-12-22T11:54:11.705Z,52.26
2022-12-22T11:55:11.497Z,52.26
2022-12-22T11:56:11.251Z,52.26
2022-12-22T11:57:11.293Z,52.26
2022-12-22T11:58:11.227Z,52.26
2022-12-22T11:59:11.330Z,52.26
2022-12-22T12:00:11.210Z,52.26
2022-12-22T12:01:16.551Z,52.26
2022-12-22T12:02:11.414Z,52.26
2022-12-22T12:03:11.342Z,52.26
2022-12-22T12:04:11.207Z,52.26
2022-12-22T12:05:11.155Z,52.26
2022-12-22T12:06:11.156Z,52.26
2022-12-22T12:07:11.152Z,52.26
2022-12-22T12:08:11.165Z,52.17
2022-12-22T12:09:11.155Z,52.26
2022-12-22T12:10:11.182Z,52.26
2022-12-22T12:11:11.101Z,52.26
2022-12-22T12:12:11.094Z,52.26
2022-12-22T12:13:11.085Z,52.26
2022-12-22T12:14:11.082Z,52.26
2022-12-22T12:15:11.105Z,52.26
2022-12-22T12:16:11.105Z,52.26
2022-12-22T12:17:11.046Z,52.26
2022-12-22T12:18:11.036Z,52.26
2022-12-22T12:19:11.028Z,52.26
2022-12-22T12:20:11.103Z,52.26
2022-12-22T12:21:11.041Z,52.26
2022-12-22T12:22:10.994Z,52.26
2022-12-22T12:23:10.995Z,52.26
2022-12-22T12:24:10.991Z,52.26
2022-12-22T12:25:10.992Z,52.26
2022-12-22T12:26:10.994Z,52.26
2022-12-22T12:27:11.021Z,52.26
2022-12-22T12:28:10.977Z,52.26
2022-12-22T12:29:10.976Z,52.26
2022-12-22T12:30:37.620Z,52.26
2022-12-22T12:31:11.035Z,52.26
2022-12-22T12:32:10.948Z,52.26
2022-12-22T12:33:10.974Z,52.26
2022-12-22T12:34:10.933Z,52.26
2022-12-22T12:35:10.930Z,52.26
2022-12-22T12:36:10.912Z,52.26
2022-12-22T12:37:10.919Z,52.26
2022-12-22T12:38:25.767Z,52.26
2022-12-22T12:39:10.925Z,52.17
2022-12-22T12:40:10.920Z,52.17
2022-12-22T12:41:10.893Z,52.17
2022-12-22T12:42:10.873Z,52.17
2022-12-22T12:43:16.044Z,52.17
2022-12-22T12:44:10.870Z,52.17
2022-12-22T12:45:11.001Z,52.17
2022-12-22T12:46:10.889Z,52.17
2022-12-22T12:47:10.922Z,52.17
2022-12-22T12:48:10.841Z,52.17
2022-12-22T12:49:10.834Z,52.17
2022-12-22T12:50:10.822Z,52.17
2022-12-22T12:51:10.873Z,52.17
2022-12-22T12:52:10.817Z,52.17